createdAt,value
2017-05-15T00:00:05.354Z,42.4
2017-05-15T00:02:05.585Z,42.2
2017-05-15T00:04:05.857Z,42.2
2017-05-15T00:06:07.741Z,42.2
2017-05-15T00:08:05.827Z,42.4
2017-05-15T00:10:05.520Z,42.4
2017-05-15T00:12:05.491Z,42.2
2017-05-15T00:14:05.194Z,42.4
2017-05-15T00:16:05.869Z,42.4
2017-05-15T00:18:05.922Z,42.2
2017-05-15T00:20:05.654Z,42.4
2017-05-15T00:22:11.016Z,42.2
2017-05-15T00:24:08.626Z,42.2
2017-05-15T00:26:12.923Z,42.2
2017-05-15T00:28:05.216Z,42.1
2017-05-15T00:30:06.213Z,42.2
2017-05-15T00:32:08.004Z,42.2
2017-05-15T00:34:08.272Z,42.2
2017-05-15T00:36:05.342Z,42.1
2017-05-15T00:38:07.519Z,42.2
2017-05-15T00:40:05.493Z,42.2
2017-05-15T00:42:05.469Z,42.3
2017-05-15T00:44:10.273Z,42.2
2017-05-15T00:46:08.026Z,42.2
2017-05-15T00:48:05.350Z,42.2
2017-05-15T00:50:05.133Z,42.2
2017-05-15T00:52:05.872Z,42.2
2017-05-15T00:54:05.666Z,42.1
2017-05-15T00:56:05.655Z,42.1
2017-05-15T00:58:07.882Z,42.1
2017-05-15T01:00:05.696Z,42.2
2017-05-15T01:02:05.442Z,42.2
2017-05-15T01:04:08.288Z,42.2
2017-05-15T01:06:06.536Z,42.2
2017-05-15T01:08:05.355Z,42.2
2017-05-15T01:10:05.719Z,42.1
2017-05-15T01:12:05.711Z,42.2
2017-05-15T01:14:10.538Z,42.1
2017-05-15T01:16:05.305Z,42.1
2017-05-15T01:18:05.500Z,42.2
2017-05-15T01:20:05.318Z,42.2
2017-05-15T01:22:05.117Z,42.2
2017-05-15T01:24:06.036Z,42.2
2017-05-15T01:26:05.768Z,42.1
2017-05-15T01:28:10.773Z,42.1
2017-05-15T01:30:05.238Z,42.1
2017-05-15T01:32:05.948Z,42.1
2017-05-15T01:34:05.685Z,42.1
2017-05-15T01:36:08.564Z,42.1
2017-05-15T01:38:10.310Z,42.1
2017-05-15T01:40:06.013Z,42.1
2017-05-15T01:42:05.958Z,42.1
2017-05-15T01:44:05.991Z,42.1
2017-05-15T01:46:05.713Z,42.1
2017-05-15T01:48:13.412Z,42.1
2017-05-15T01:50:05.117Z,42.1
2017-05-15T01:52:05.863Z,42.1
2017-05-15T01:54:08.372Z,42.1
2017-05-15T01:56:05.046Z,42.1
2017-05-15T01:58:05.755Z,42.1
2017-05-15T02:00:08.356Z,42.1
2017-05-15T02:02:05.615Z,42.1
2017-05-15T02:04:05.427Z,42.1
2017-05-15T02:06:06.083Z,42.1
2017-05-15T02:08:05.309Z,42.1
2017-05-15T02:10:05.034Z,42.1
2017-05-15T02:12:06.092Z,42.1
2017-05-15T02:14:05.792Z,42.1
2017-05-15T02:16:07.929Z,42.1
2017-05-15T02:18:06.154Z,42.1
2017-05-15T02:20:05.854Z,42.1
2017-05-15T02:22:05.554Z,42.1
2017-05-15T02:24:10.619Z,41.9
2017-05-15T02:26:05.911Z,42
2017-05-15T02:28:08.137Z,42.1
2017-05-15T02:30:11.212Z,42.1
2017-05-15T02:32:06.239Z,41.8
2017-05-15T02:34:05.915Z,42.1
2017-05-15T02:36:05.834Z,42.1
2017-05-15T02:38:05.526Z,41.8
2017-05-15T02:40:07.724Z,42.1
2017-05-15T02:42:06.111Z,41.8
2017-05-15T02:44:08.620Z,42
2017-05-15T02:46:05.609Z,42
2017-05-15T02:48:06.401Z,42.1
2017-05-15T02:50:05.566Z,42.1
2017-05-15T02:52:05.662Z,42
2017-05-15T02:54:05.575Z,42
2017-05-15T02:56:05.414Z,42
2017-05-15T02:58:05.231Z,42
2017-05-15T03:00:06.449Z,42
2017-05-15T03:02:05.258Z,42
2017-05-15T03:04:06.175Z,42
2017-05-15T03:06:05.745Z,41.8
2017-05-15T03:08:07.928Z,41.8
2017-05-15T03:10:05.607Z,41.8
2017-05-15T03:12:05.680Z,42
2017-05-15T03:14:05.400Z,41.8
2017-05-15T03:16:05.134Z,41.8
2017-05-15T03:18:07.907Z,41.8
2017-05-15T03:20:08.298Z,42
2017-05-15T03:22:06.066Z,41.8
2017-05-15T03:24:05.934Z,41.8
2017-05-15T03:26:05.683Z,41.8
2017-05-15T03:28:05.423Z,41.8
2017-05-15T03:30:05.441Z,41.8
2017-05-15T03:32:08.279Z,41.8
2017-05-15T03:34:08.516Z,41.9
2017-05-15T03:36:05.475Z,41.8
2017-05-15T03:38:05.691Z,41.8
2017-05-15T03:40:05.504Z,41.8
2017-05-15T03:42:06.060Z,41.8
2017-05-15T03:44:05.733Z,41.8
2017-05-15T03:46:05.475Z,41.8
2017-05-15T03:48:05.513Z,41.8
2017-05-15T03:50:05.406Z,41.8
2017-05-15T03:52:05.468Z,41.8
2017-05-15T03:54:05.572Z,41.8
2017-05-15T03:56:05.255Z,41.8
2017-05-15T03:58:08.541Z,41.8
2017-05-15T04:00:06.027Z,41.8
2017-05-15T04:02:05.702Z,41.8
2017-05-15T04:04:05.956Z,41.8
2017-05-15T04:06:05.986Z,41.8
2017-05-15T04:08:06.124Z,41.8
2017-05-15T04:10:05.376Z,41.8
2017-05-15T04:12:05.440Z,41.8
2017-05-15T04:14:05.160Z,41.8
2017-05-15T04:16:08.394Z,41.8
2017-05-15T04:18:08.284Z,41.8
2017-05-15T04:20:05.971Z,41.8
2017-05-15T04:22:08.203Z,41.8
2017-05-15T04:24:05.860Z,41.8
2017-05-15T04:26:05.137Z,41.8
2017-05-15T04:28:05.355Z,41.7
2017-05-15T04:30:05.919Z,41.7
2017-05-15T04:32:07.658Z,41.7
2017-05-15T04:34:05.350Z,41.7
2017-05-15T04:36:05.301Z,41.7
2017-05-15T04:38:05.143Z,41.7
2017-05-15T04:40:06.105Z,41.7
2017-05-15T04:42:06.084Z,41.7
2017-05-15T04:44:05.756Z,41.9
2017-05-15T04:46:05.488Z,41.9
2017-05-15T04:48:10.463Z,41.9
2017-05-15T04:50:08.657Z,41.9
2017-05-15T04:52:05.619Z,41.4
2017-05-15T04:54:05.669Z,41.8
2017-05-15T04:56:05.726Z,41.7
2017-05-15T04:58:05.536Z,41.7
2017-05-15T05:00:05.421Z,41.9
2017-05-15T05:02:05.292Z,41.8
2017-05-15T05:04:05.031Z,41.8
2017-05-15T05:06:05.882Z,41.7
2017-05-15T05:08:05.169Z,41.7
2017-05-15T05:10:08.425Z,41.8
2017-05-15T05:12:05.393Z,41.5
2017-05-15T05:14:05.180Z,41.7
2017-05-15T05:16:05.428Z,41.6
2017-05-15T05:18:05.699Z,41.6
2017-05-15T05:20:05.501Z,41.4
2017-05-15T05:22:05.835Z,41.6
2017-05-15T05:24:05.789Z,41.6
2017-05-15T05:26:09.073Z,41.6
2017-05-15T05:28:06.194Z,41.6
2017-05-15T05:30:06.017Z,41.6
2017-05-15T05:32:08.004Z,41.8
2017-05-15T05:34:05.190Z,41.9
2017-05-15T05:36:13.316Z,41.8
2017-05-15T05:38:05.597Z,41.8
2017-05-15T05:40:05.311Z,41.8
2017-05-15T05:42:07.726Z,42
2017-05-15T05:44:08.432Z,42
2017-05-15T05:46:05.114Z,41.8
2017-05-15T05:48:06.198Z,42
2017-05-15T05:50:05.918Z,42
2017-05-15T05:52:08.182Z,42
2017-05-15T05:54:06.249Z,42
2017-05-15T05:56:11.029Z,42
2017-05-15T05:58:08.261Z,42.3
2017-05-15T06:00:06.329Z,42
2017-05-15T06:02:05.014Z,42.3
2017-05-15T06:04:05.821Z,42.3
2017-05-15T06:06:05.734Z,42.3
2017-05-15T06:08:07.994Z,42.2
2017-05-15T06:10:05.702Z,42.2
2017-05-15T06:12:05.702Z,42.4
2017-05-15T06:14:05.398Z,42
2017-05-15T06:16:05.201Z,42.2
2017-05-15T06:18:05.226Z,42.1
2017-05-15T06:20:05.907Z,42.1
2017-05-15T06:22:05.579Z,42.1
2017-05-15T06:24:05.576Z,42
2017-05-15T06:26:05.259Z,42.1
2017-05-15T06:28:05.501Z,42.1
2017-05-15T06:30:08.037Z,42
2017-05-15T06:32:08.510Z,42
2017-05-15T06:34:05.389Z,42
2017-05-15T06:36:05.884Z,42.2
2017-05-15T06:38:05.656Z,42.1
2017-05-15T06:40:05.394Z,42.1
2017-05-15T06:42:05.259Z,42.1
2017-05-15T06:44:05.987Z,42
2017-05-15T06:46:08.283Z,42.2
2017-05-15T06:48:05.674Z,42.2
2017-05-15T06:50:05.395Z,42.1
2017-05-15T06:52:05.218Z,42.1
2017-05-15T06:54:08.830Z,42.1
2017-05-15T06:56:05.186Z,42.1
2017-05-15T06:58:05.876Z,42.3
2017-05-15T07:00:05.525Z,42
2017-05-15T07:02:08.348Z,42.2
2017-05-15T07:04:05.303Z,42.2
2017-05-15T07:06:06.232Z,42.1
2017-05-15T07:08:05.977Z,42.1
2017-05-15T07:10:10.730Z,42
2017-05-15T07:12:05.745Z,42
2017-05-15T07:14:05.428Z,42.2
2017-05-15T07:16:05.134Z,42.2
2017-05-15T07:18:08.212Z,42.1
2017-05-15T07:20:06.103Z,42.1
2017-05-15T07:22:05.352Z,42.1
2017-05-15T07:24:05.338Z,42.1
2017-05-15T07:26:05.098Z,42.1
2017-05-15T07:28:06.254Z,42.1
2017-05-15T07:30:06.065Z,42.1
2017-05-15T07:32:05.277Z,42.1
2017-05-15T07:34:05.266Z,42.1
2017-05-15T07:36:06.357Z,42.2
2017-05-15T07:38:05.060Z,42
2017-05-15T07:40:05.802Z,42.1
2017-05-15T07:42:05.916Z,42.1
2017-05-15T07:44:05.621Z,42.1
2017-05-15T07:46:05.300Z,42
2017-05-15T07:48:06.328Z,42.1
2017-05-15T07:50:05.130Z,42.1
2017-05-15T07:52:06.003Z,42
2017-05-15T07:54:08.028Z,41.9
2017-05-15T07:56:05.757Z,41.9
2017-05-15T07:58:08.029Z,41.9
2017-05-15T08:00:06.022Z,42.1
2017-05-15T08:02:05.277Z,42.1
2017-05-15T08:04:05.142Z,42
2017-05-15T08:06:06.181Z,42
2017-05-15T08:08:06.249Z,42
2017-05-15T08:10:05.931Z,41.8
2017-05-15T08:12:05.329Z,41.6
2017-05-15T08:14:05.097Z,41.7
2017-05-15T08:16:05.779Z,41.7
2017-05-15T08:18:05.826Z,41.5
2017-05-15T08:20:10.687Z,41.8
2017-05-15T08:22:05.346Z,41.8
2017-05-15T08:24:05.439Z,41.7
2017-05-15T08:26:05.140Z,41.8
2017-05-15T08:28:05.930Z,41.8
2017-05-15T08:30:05.235Z,41.7
2017-05-15T08:32:05.493Z,41.2
2017-05-15T08:34:05.210Z,41.5
2017-05-15T08:36:06.168Z,41.5
2017-05-15T08:38:05.916Z,41.2
2017-05-15T08:40:05.923Z,41.2
2017-05-15T08:42:05.978Z,41.2
2017-05-15T08:44:05.793Z,41.2
2017-05-15T08:46:08.009Z,40.6
2017-05-15T08:48:06.017Z,40.6
2017-05-15T08:50:05.769Z,40.6
2017-05-15T08:52:05.680Z,40.7
2017-05-15T08:54:06.194Z,40.8
2017-05-15T08:56:08.732Z,41.1
2017-05-15T08:58:05.437Z,41.1
2017-05-15T09:00:05.417Z,40.9
2017-05-15T09:02:05.208Z,41
2017-05-15T09:04:05.879Z,40.9
2017-05-15T09:06:05.889Z,40.9
2017-05-15T09:08:05.596Z,40.9
2017-05-15T09:10:05.355Z,41
2017-05-15T09:12:05.413Z,41
2017-05-15T09:14:05.110Z,40.9
2017-05-15T09:16:05.824Z,40.8
2017-05-15T09:18:06.036Z,40.9
2017-05-15T09:20:05.787Z,41
2017-05-15T09:22:05.461Z,40.9
2017-05-15T09:24:05.857Z,40.3
2017-05-15T09:26:05.128Z,40
2017-05-15T09:28:08.401Z,40
2017-05-15T09:30:05.585Z,40
2017-05-15T09:32:05.803Z,40.4
2017-05-15T09:34:05.505Z,40.4
2017-05-15T09:36:05.217Z,40.2
2017-05-15T09:38:06.016Z,40.4
2017-05-15T09:40:05.695Z,40.4
2017-05-15T09:42:11.042Z,40.3
2017-05-15T09:44:08.323Z,40.2
2017-05-15T09:46:07.566Z,40.3
2017-05-15T09:48:06.241Z,40.3
2017-05-15T09:50:07.533Z,40.6
2017-05-15T09:52:07.762Z,40.4
2017-05-15T09:54:05.662Z,40.5
2017-05-15T09:56:05.348Z,40
2017-05-15T09:58:05.036Z,40.3
2017-05-15T10:00:05.900Z,39.9
2017-05-15T10:02:05.568Z,39.8
2017-05-15T10:04:12.844Z,39.4
2017-05-15T10:06:05.906Z,39.5
2017-05-15T10:08:08.463Z,39
2017-05-15T10:10:05.301Z,38.8
2017-05-15T10:12:06.020Z,38.6
2017-05-15T10:14:05.282Z,38.5
2017-05-15T10:16:05.147Z,37.7
2017-05-15T10:18:05.205Z,37.5
2017-05-15T10:20:07.937Z,37.3
2017-05-15T10:22:08.193Z,36.9
2017-05-15T10:24:05.942Z,36.8
2017-05-15T10:26:08.284Z,37.8
2017-05-15T10:28:08.527Z,37.3
2017-05-15T10:30:05.395Z,37.4
2017-05-15T10:32:09.014Z,36.9
2017-05-15T10:34:06.789Z,37.1
2017-05-15T10:36:05.722Z,37.1
2017-05-15T10:38:05.418Z,37.2
2017-05-15T10:40:05.126Z,37.2
2017-05-15T10:42:05.916Z,37.2
2017-05-15T10:44:08.232Z,37.7
2017-05-15T10:46:06.026Z,37.7
2017-05-15T10:48:05.386Z,37.4
2017-05-15T10:50:05.097Z,36.9
2017-05-15T10:52:05.763Z,37.1
2017-05-15T10:54:11.131Z,37.1
2017-05-15T10:56:08.369Z,37.1
2017-05-15T10:58:05.068Z,36.9
2017-05-15T11:00:05.998Z,36.4
2017-05-15T11:02:10.789Z,35.4
2017-05-15T11:04:05.538Z,35.5
2017-05-15T11:06:07.728Z,35.9
2017-05-15T11:08:05.518Z,35.8
2017-05-15T11:10:07.711Z,35.7
2017-05-15T11:12:05.413Z,35.7
2017-05-15T11:14:10.718Z,34.8
2017-05-15T11:16:10.473Z,34.7
2017-05-15T11:18:06.050Z,34.8
2017-05-15T11:20:06.367Z,35
2017-05-15T11:22:07.636Z,35.5
2017-05-15T11:24:05.906Z,35.5
2017-05-15T11:26:05.709Z,35.8
2017-05-15T11:28:08.197Z,35.3
2017-05-15T11:30:06.036Z,35.4
2017-05-15T11:32:05.918Z,35.3
2017-05-15T11:34:25.378Z,35.3
2017-05-15T11:36:11.122Z,35.1
2017-05-15T11:38:05.406Z,35.1
2017-05-15T11:40:05.659Z,34.6
2017-05-15T11:42:06.609Z,34.5
2017-05-15T11:44:05.354Z,34.4
2017-05-15T11:46:05.055Z,34.3
2017-05-15T11:48:08.472Z,34.4
2017-05-15T11:50:05.142Z,34.4
2017-05-15T11:52:05.898Z,34.5
2017-05-15T11:54:05.812Z,34.9
2017-05-15T11:56:06.274Z,35.3
2017-05-15T11:58:13.565Z,35.3
2017-05-15T12:00:05.531Z,35.3
2017-05-15T12:02:05.212Z,35.1
2017-05-15T12:04:05.423Z,35
2017-05-15T12:06:05.333Z,35.1
2017-05-15T12:08:07.573Z,35.3
2017-05-15T12:10:05.310Z,35.3
2017-05-15T12:12:05.183Z,35.2
2017-05-15T12:14:05.897Z,35.2
2017-05-15T12:16:05.601Z,35
2017-05-15T12:18:10.592Z,35.3
2017-05-15T12:20:12.956Z,35.2
2017-05-15T12:22:10.757Z,35.2
2017-05-15T12:24:10.461Z,35.2
2017-05-15T12:26:05.435Z,35.7
2017-05-15T12:28:10.211Z,35.1
2017-05-15T12:30:06.553Z,35.2
2017-05-15T12:32:05.275Z,35.5
2017-05-15T12:34:08.520Z,35.1
2017-05-15T12:36:05.370Z,35.1
2017-05-15T12:38:05.090Z,35
2017-05-15T12:40:05.836Z,35
2017-05-15T12:42:05.963Z,35.1
2017-05-15T12:44:05.893Z,35.1
2017-05-15T12:46:05.570Z,34.9
2017-05-15T12:48:08.099Z,34.9
2017-05-15T12:50:07.103Z,34.9
2017-05-15T12:52:05.687Z,34.9
2017-05-15T12:54:09.334Z,34.9
2017-05-15T12:56:05.279Z,34.8
2017-05-15T12:58:05.962Z,34.8
2017-05-15T13:00:05.862Z,34.8
2017-05-15T13:02:05.583Z,34.9
2017-05-15T13:04:05.392Z,35.1
2017-05-15T13:06:05.687Z,35.1
2017-05-15T13:08:05.345Z,35
2017-05-15T13:10:05.248Z,35.2
2017-05-15T13:12:08.844Z,35.1
2017-05-15T13:14:08.089Z,35
2017-05-15T13:16:08.547Z,34.6
2017-05-15T13:18:05.585Z,34.6
2017-05-15T13:20:07.799Z,34.9
2017-05-15T13:22:05.552Z,35.1
2017-05-15T13:24:07.805Z,35.5
2017-05-15T13:26:10.787Z,35.5
2017-05-15T13:28:10.263Z,35.5
2017-05-15T13:30:08.612Z,35.8
2017-05-15T13:32:05.339Z,35.8
2017-05-15T13:34:05.364Z,35.9
2017-05-15T13:36:05.411Z,35.9
2017-05-15T13:38:05.162Z,35.8
2017-05-15T13:40:05.829Z,35.6
2017-05-15T13:42:05.161Z,35.8
2017-05-15T13:44:06.035Z,35.9
2017-05-15T13:46:05.764Z,35.7
2017-05-15T13:48:08.054Z,35.5
2017-05-15T13:50:10.833Z,35.6
2017-05-15T13:52:05.556Z,35.6
2017-05-15T13:54:05.323Z,35.9
2017-05-15T13:56:05.022Z,36
2017-05-15T13:58:08.264Z,36.5
2017-05-15T14:00:06.129Z,36.5
2017-05-15T14:02:05.794Z,36.6
2017-05-15T14:04:07.533Z,37
2017-05-15T14:06:05.760Z,37
2017-05-15T14:08:05.515Z,37
2017-05-15T14:10:05.230Z,37.1
2017-05-15T14:12:06.019Z,37.2
2017-05-15T14:14:05.741Z,37.5
2017-05-15T14:16:05.763Z,37.4
2017-05-15T14:18:08.378Z,37.1
2017-05-15T14:20:05.110Z,36.8
2017-05-15T14:22:05.070Z,36.9
2017-05-15T14:24:05.808Z,37.2
2017-05-15T14:26:08.175Z,37.5
2017-05-15T14:28:05.401Z,37.6
2017-05-15T14:30:07.976Z,38
2017-05-15T14:32:06.042Z,38
2017-05-15T14:34:05.942Z,38.1
2017-05-15T14:36:05.625Z,38.1
2017-05-15T14:38:10.417Z,38.3
2017-05-15T14:40:10.157Z,38.3
2017-05-15T14:42:05.853Z,38.3
2017-05-15T14:44:05.589Z,38.2
2017-05-15T14:46:12.838Z,38.5
2017-05-15T14:48:05.695Z,38.5
2017-05-15T14:50:05.406Z,38.6
2017-05-15T14:52:05.145Z,38.5
2017-05-15T14:54:06.047Z,38.6
2017-05-15T14:56:05.280Z,38.6
2017-05-15T14:58:06.004Z,38.6
2017-05-15T15:00:06.929Z,38.6
2017-05-15T15:02:05.646Z,38.8
2017-05-15T15:04:05.560Z,38.8
2017-05-15T15:06:05.309Z,38.8
2017-05-15T15:08:10.055Z,38.8
2017-05-15T15:10:05.803Z,38.8
2017-05-15T15:12:05.298Z,38.8
2017-05-15T15:14:05.086Z,38.8
2017-05-15T15:16:05.849Z,38.8
2017-05-15T15:18:05.817Z,38.8
2017-05-15T15:20:05.251Z,39
2017-05-15T15:22:06.013Z,39
2017-05-15T15:24:05.882Z,39
2017-05-15T15:26:05.598Z,39.1
2017-05-15T15:28:05.597Z,39
2017-05-15T15:30:05.409Z,39.1
2017-05-15T15:32:05.123Z,39.1
2017-05-15T15:34:05.809Z,39.2
2017-05-15T15:36:08.202Z,39.3
2017-05-15T15:38:05.959Z,39.3
2017-05-15T15:40:05.160Z,39.3
2017-05-15T15:42:08.114Z,39.3
2017-05-15T15:44:05.274Z,39.3
2017-05-15T15:46:05.554Z,39.3
2017-05-15T15:48:05.230Z,39.3
2017-05-15T15:50:05.975Z,39.6
2017-05-15T15:52:05.243Z,39.4
2017-05-15T15:54:05.973Z,39.6
2017-05-15T15:56:05.238Z,39.7
2017-05-15T15:58:06.057Z,39.4
2017-05-15T16:00:17.932Z,39.5
2017-05-15T16:02:05.639Z,39.5
2017-05-15T16:04:05.386Z,39.5
2017-05-15T16:06:05.645Z,39.7
2017-05-15T16:08:07.924Z,39.4
2017-05-15T16:10:10.418Z,39.5
2017-05-15T16:12:05.090Z,39.5
2017-05-15T16:14:05.853Z,39.5
2017-05-15T16:16:05.613Z,39.5
2017-05-15T16:18:08.372Z,39.5
2017-05-15T16:20:05.471Z,39.5
2017-05-15T16:22:07.708Z,39.5
2017-05-15T16:24:05.806Z,39.5
2017-05-15T16:26:08.463Z,39.5
2017-05-15T16:28:05.342Z,39.5
2017-05-15T16:30:05.027Z,39.4
2017-05-15T16:32:05.735Z,39.4
2017-05-15T16:34:05.545Z,39.3
2017-05-15T16:36:05.378Z,39.3
2017-05-15T16:38:07.607Z,39.1
2017-05-15T16:40:05.551Z,39.1
2017-05-15T16:42:07.987Z,39.1
2017-05-15T16:44:08.189Z,38.9
2017-05-15T16:46:05.753Z,39.1
2017-05-15T16:48:05.565Z,39.2
2017-05-15T16:50:07.832Z,39.2
2017-05-15T16:52:05.545Z,39.2
2017-05-15T16:54:05.594Z,39.3
2017-05-15T16:56:05.359Z,39
2017-05-15T16:58:05.077Z,38.6
2017-05-15T17:00:05.571Z,38.8
2017-05-15T17:02:05.742Z,37.7
2017-05-15T17:04:05.644Z,37.9
2017-05-15T17:06:05.734Z,38
2017-05-15T17:08:08.537Z,38
2017-05-15T17:10:05.974Z,38
2017-05-15T17:12:06.453Z,37.6
2017-05-15T17:14:05.679Z,38.1
2017-05-15T17:16:05.387Z,38.1
2017-05-15T17:18:05.502Z,38.1
2017-05-15T17:20:05.193Z,38.1
2017-05-15T17:22:05.417Z,38
2017-05-15T17:24:10.296Z,37.8
2017-05-15T17:26:05.033Z,37.7
2017-05-15T17:28:05.650Z,37.3
2017-05-15T17:30:05.622Z,37.6
2017-05-15T17:32:05.539Z,37.3
2017-05-15T17:34:06.521Z,37.4
2017-05-15T17:36:05.395Z,37.5
2017-05-15T17:38:10.715Z,37.7
2017-05-15T17:40:05.428Z,37.7
2017-05-15T17:42:05.532Z,38.1
2017-05-15T17:44:06.081Z,37.6
2017-05-15T17:46:08.352Z,37.4
2017-05-15T17:48:05.464Z,37.4
2017-05-15T17:50:05.219Z,37.4
2017-05-15T17:52:05.957Z,37.3
2017-05-15T17:54:05.796Z,37.2
2017-05-15T17:56:05.072Z,37.2
2017-05-15T17:58:05.989Z,36.8
2017-05-15T18:00:08.391Z,36.7
2017-05-15T18:02:05.109Z,36.7
2017-05-15T18:04:08.434Z,36.6
2017-05-15T18:06:14.097Z,36.5
2017-05-15T18:08:07.250Z,36.5
2017-05-15T18:10:05.184Z,36.4
2017-05-15T18:12:05.586Z,36.5
2017-05-15T18:14:05.505Z,36.2
2017-05-15T18:16:12.849Z,36
2017-05-15T18:18:12.136Z,35.9
2017-05-15T18:20:05.192Z,35.9
2017-05-15T18:22:05.144Z,35.9
2017-05-15T18:24:06.075Z,35.9
2017-05-15T18:26:05.849Z,36
2017-05-15T18:28:05.521Z,36.1
2017-05-15T18:30:06.251Z,36.1
2017-05-15T18:32:06.068Z,36.1
2017-05-15T18:34:05.262Z,36
2017-05-15T18:36:06.949Z,35.8
2017-05-15T18:38:05.622Z,36
2017-05-15T18:40:05.887Z,36
2017-05-15T18:42:05.681Z,35.9
2017-05-15T18:44:08.447Z,36.1
2017-05-15T18:46:07.667Z,36.3
2017-05-15T18:48:05.512Z,36.3
2017-05-15T18:50:05.221Z,36.4
2017-05-15T18:52:05.460Z,36.4
2017-05-15T18:54:05.311Z,36.4
2017-05-15T18:56:05.990Z,36.3
2017-05-15T18:58:05.882Z,36.2
2017-05-15T19:00:05.220Z,36
2017-05-15T19:02:08.514Z,36
2017-05-15T19:04:05.261Z,36
2017-05-15T19:06:08.119Z,36.3
2017-05-15T19:08:05.799Z,36.3
2017-05-15T19:10:10.513Z,36.4
2017-05-15T19:12:08.141Z,36.5
2017-05-15T19:14:05.744Z,36.5
2017-05-15T19:16:05.629Z,36.5
2017-05-15T19:18:05.546Z,36.5
2017-05-15T19:20:05.326Z,36.6
2017-05-15T19:22:05.509Z,36.6
2017-05-15T19:24:07.907Z,36.8
2017-05-15T19:26:05.216Z,36.8
2017-05-15T19:28:05.365Z,36.8
2017-05-15T19:30:05.776Z,36.9
2017-05-15T19:32:06.035Z,36.9
2017-05-15T19:34:05.740Z,36.7
2017-05-15T19:36:05.632Z,36.9
2017-05-15T19:38:18.533Z,37
2017-05-15T19:40:05.741Z,37
2017-05-15T19:42:05.552Z,37.1
2017-05-15T19:44:07.769Z,37.3
2017-05-15T19:46:10.528Z,37.4
2017-05-15T19:48:05.355Z,37.4
2017-05-15T19:50:05.126Z,37.5
2017-05-15T19:52:08.613Z,37.6
2017-05-15T19:54:06.023Z,37.6
2017-05-15T19:56:05.228Z,37.8
2017-05-15T19:58:11.206Z,38.3
2017-05-15T20:00:06.148Z,38.3
2017-05-15T20:02:05.895Z,38.3
2017-05-15T20:04:05.879Z,38.3
2017-05-15T20:06:08.275Z,38.4
2017-05-15T20:08:06.125Z,38.4
2017-05-15T20:10:08.655Z,38.5
2017-05-15T20:12:05.025Z,38.5
2017-05-15T20:14:05.750Z,38.6
2017-05-15T20:16:08.166Z,38.7
2017-05-15T20:18:05.273Z,38.7
2017-05-15T20:20:05.644Z,38.6
2017-05-15T20:22:05.353Z,38.8
2017-05-15T20:24:07.736Z,38.7
2017-05-15T20:26:10.759Z,38.8
2017-05-15T20:28:05.474Z,38.7
2017-05-15T20:30:05.377Z,38.8
2017-05-15T20:32:05.077Z,38.8
2017-05-15T20:34:08.034Z,38.9
2017-05-15T20:36:08.006Z,38.9
2017-05-15T20:38:05.682Z,38.7
2017-05-15T20:40:10.611Z,38.7
2017-05-15T20:42:07.692Z,39
2017-05-15T20:44:05.840Z,39
2017-05-15T20:46:06.553Z,38.7
2017-05-15T20:48:05.778Z,39
2017-05-15T20:50:05.442Z,39
2017-05-15T20:52:05.166Z,39
2017-05-15T20:54:09.009Z,39
2017-05-15T20:56:05.858Z,39
2017-05-15T20:58:05.182Z,38.8
2017-05-15T21:00:05.330Z,38.9
2017-05-15T21:02:05.999Z,39
2017-05-15T21:04:10.359Z,39
2017-05-15T21:06:06.159Z,38.8
2017-05-15T21:08:10.875Z,38.7
2017-05-15T21:10:05.552Z,38.7
2017-05-15T21:12:05.632Z,38.8
2017-05-15T21:14:05.561Z,38.8
2017-05-15T21:16:10.548Z,39
2017-05-15T21:18:05.835Z,38.7
2017-05-15T21:20:05.628Z,38.9
2017-05-15T21:22:05.377Z,38.8
2017-05-15T21:24:07.739Z,38.7
2017-05-15T21:26:05.607Z,38.7
2017-05-15T21:28:05.538Z,38.9
2017-05-15T21:30:05.429Z,38.8
2017-05-15T21:32:05.216Z,39
2017-05-15T21:34:05.935Z,38.9
2017-05-15T21:36:05.623Z,38.9
2017-05-15T21:38:05.873Z,38.7
2017-05-15T21:40:05.607Z,38.9
2017-05-15T21:42:05.722Z,38.7
2017-05-15T21:44:05.969Z,38.7
2017-05-15T21:46:05.710Z,38.9
2017-05-15T21:48:05.670Z,38.9
2017-05-15T21:50:05.349Z,38.7
2017-05-15T21:52:05.552Z,38.6
2017-05-15T21:54:12.905Z,38.9
2017-05-15T21:56:05.659Z,38.6
2017-05-15T21:58:05.921Z,38.6
2017-05-15T22:00:10.951Z,38.6
2017-05-15T22:02:05.695Z,38.6
2017-05-15T22:04:05.522Z,38.6
2017-05-15T22:06:05.373Z,38.6
2017-05-15T22:08:07.624Z,38.6
2017-05-15T22:10:05.331Z,38.6
2017-05-15T22:12:05.415Z,38.6
2017-05-15T22:14:07.833Z,38.5
2017-05-15T22:16:05.885Z,38.5
2017-05-15T22:18:08.494Z,38.5
2017-05-15T22:20:07.720Z,38.5
2017-05-15T22:22:05.389Z,38.5
2017-05-15T22:24:05.341Z,38.5
2017-05-15T22:26:12.636Z,38.6
2017-05-15T22:28:05.361Z,38.5
2017-05-15T22:30:07.697Z,38.5
2017-05-15T22:32:08.544Z,38.5
2017-05-15T22:34:05.263Z,38.6
2017-05-15T22:36:08.504Z,38.5
2017-05-15T22:38:05.257Z,38.5
2017-05-15T22:40:08.461Z,38.6
2017-05-15T22:42:05.190Z,38.6
2017-05-15T22:44:06.044Z,38.6
2017-05-15T22:46:08.275Z,38.6
2017-05-15T22:48:06.041Z,38.6
2017-05-15T22:50:05.817Z,38.6
2017-05-15T22:52:05.573Z,38.6
2017-05-15T22:54:05.475Z,38.6
2017-05-15T22:56:05.180Z,38.6
2017-05-15T22:58:05.891Z,38.6
2017-05-15T23:00:08.326Z,38.6
2017-05-15T23:02:05.037Z,38.6
2017-05-15T23:04:05.884Z,38.6
2017-05-15T23:06:05.466Z,38.7
2017-05-15T23:08:10.622Z,38.7
2017-05-15T23:10:05.826Z,38.7
2017-05-15T23:12:05.730Z,38.7
2017-05-15T23:14:10.316Z,38.7
2017-05-15T23:16:05.790Z,38.7
2017-05-15T23:18:06.099Z,38.8
2017-05-15T23:20:13.536Z,38.8
2017-05-15T23:22:10.294Z,38.8
2017-05-15T23:24:05.705Z,38.8
2017-05-15T23:26:05.473Z,38.8
2017-05-15T23:28:05.187Z,38.9
2017-05-15T23:30:08.995Z,38.9
2017-05-15T23:32:05.908Z,38.9
2017-05-15T23:34:05.613Z,38.6
2017-05-15T23:36:05.834Z,39
2017-05-15T23:38:10.143Z,39
2017-05-15T23:40:05.891Z,38.7
2017-05-15T23:42:05.214Z,39
2017-05-15T23:44:05.394Z,39
2017-05-15T23:46:05.122Z,39
2017-05-15T23:48:05.966Z,39
2017-05-15T23:50:08.258Z,39.1
2017-05-15T23:52:07.593Z,39.1
2017-05-15T23:54:05.367Z,39.1
2017-05-15T23:56:05.066Z,39.1
2017-05-15T23:58:05.449Z,39.1
